Fall Lake, Minnesota
Current Conditions -  °F | °C
As of 2:13 PM on Thursday 18 Dec 2014 (Local Time) from KELO Reporting Station
Overcast Overcast  
Wind Chill: 21°   Ceiling: 1600
Heat Index: 21°   Visibility: 10mi
Dew Point: 18°   Wind: 3mph
Humidity: 86%   Direction: 110°ESE
Pressure: 30.23"   Gusts: NA
Location:  47.9252°N, 91.7976°W
Report Text: KELO 182013Z AUTO 11003KT 10SM OVC016 M06/M08 A3023 RMK AO2
Loading
Personal Weather Stations






























Interactive Weather Map New forecast layout! Learn more

10-Day Weather Forecast

Advertisements
Track Severe Weather on mobile